Time;durP1;ratioP1;P1;durP2;ratioP2;P2;SDS_P1;SDS_P2;PMS_P1;PMS_P2;Temp;Humidity;BMP_temperature;BMP_pressure;BME280_temperature;BME280_humidity;BME280_pressure;Samples;Min_cycle;Max_cycle;Signal;HPM_P1;HPM_P2
2023/06/03 00:01:19;;;;;;;4.55;2.50;;;;;;;;;;5053433;28;20414;-78
2023/06/03 00:03:46;;;;;;;5.43;2.60;;;;;;;;;;5046098;28;20132;-78
2023/06/03 00:06:12;;;;;;;4.45;2.65;;;;;;;;;;5033569;28;20081;-78
2023/06/03 00:08:39;;;;;;;3.95;2.50;;;;;;;;;;5033305;28;20506;-78
2023/06/03 00:11:05;;;;;;;5.85;2.70;;;;;;;;;;5040907;28;20534;-78
2023/06/03 00:13:31;;;;;;;3.05;2.50;;;;;;;;;;5053061;28;20519;-78
2023/06/03 00:15:57;;;;;;;4.13;2.75;;;;;;;;;;5053092;28;20041;-78
2023/06/03 00:18:23;;;;;;;4.97;2.50;;;;;;;;;;5046564;28;20124;-78
2023/06/03 00:20:50;;;;;;;4.05;2.65;;;;;;;;;;5031999;28;20060;-78
2023/06/03 00:23:16;;;;;;;4.28;2.70;;;;;;;;;;5032179;28;20260;-78
2023/06/03 00:25:42;;;;;;;4.18;2.42;;;;;;;;;;5033166;28;20042;-78
2023/06/03 00:28:08;;;;;;;7.00;2.75;;;;;;;;;;5033387;28;20124;-78
2023/06/03 00:30:35;;;;;;;5.78;2.65;;;;;;;;;;5025941;28;20200;-78
2023/06/03 00:33:01;;;;;;;2.78;2.30;;;;;;;;;;5024028;28;20053;-78
2023/06/03 00:35:27;;;;;;;5.13;2.40;;;;;;;;;;5047449;28;20411;-78
2023/06/03 00:37:57;;;;;;;4.57;2.53;;;;;;;;;;5033298;28;20087;-78
2023/06/03 00:40:23;;;;;;;5.18;2.70;;;;;;;;;;5040822;28;20100;-78
2023/06/03 00:42:49;;;;;;;5.50;2.45;;;;;;;;;;5050562;28;23007;-78
2023/06/03 00:45:15;;;;;;;2.85;2.40;;;;;;;;;;5035004;28;20057;-78
2023/06/03 00:47:41;;;;;;;4.72;2.55;;;;;;;;;;5053212;28;20041;-78
2023/06/03 00:50:08;;;;;;;5.85;2.63;;;;;;;;;;5053033;28;20475;-78
2023/06/03 00:52:35;;;;;;;3.28;2.35;;;;;;;;;;5053008;28;20072;-78
2023/06/03 00:55:02;;;;;;;6.03;3.20;;;;;;;;;;5053079;28;20052;-78
2023/06/03 00:57:28;;;;;;;6.20;2.40;;;;;;;;;;5042604;28;20088;-78
2023/06/03 00:59:54;;;;;;;4.97;2.63;;;;;;;;;;5012214;28;20070;-78
2023/06/03 01:02:20;;;;;;;5.13;2.85;;;;;;;;;;5013566;28;20081;-78
2023/06/03 01:04:48;;;;;;;5.03;2.60;;;;;;;;;;5015297;28;20056;-78
2023/06/03 01:07:20;;;;;;;4.60;2.47;;;;;;;;;;5017022;28;20406;-78
2023/06/03 01:09:49;;;;;;;3.25;2.40;;;;;;;;;;5016894;28;20483;-78
2023/06/03 01:12:34;;;;;;;4.10;2.70;;;;;;;;;;5033880;28;20059;-78
2023/06/03 01:15:03;;;;;;;4.68;2.60;;;;;;;;;;5036743;28;20037;-78
2023/06/03 01:17:31;;;;;;;5.57;2.70;;;;;;;;;;5020484;28;20050;-78
2023/06/03 01:19:58;;;;;;;4.70;2.40;;;;;;;;;;5015420;28;20038;-78
2023/06/03 01:22:26;;;;;;;4.35;2.83;;;;;;;;;;5016789;28;20476;-78
2023/06/03 01:25:03;;;;;;;2.92;2.25;;;;;;;;;;5016608;28;20499;-78
2023/06/03 01:27:29;;;;;;;3.70;2.28;;;;;;;;;;5022596;28;20415;-78
2023/06/03 01:29:55;;;;;;;3.83;2.30;;;;;;;;;;5036256;28;20517;-78
2023/06/03 01:32:21;;;;;;;4.25;2.65;;;;;;;;;;5032536;28;20057;-78
2023/06/03 01:34:48;;;;;;;4.38;2.38;;;;;;;;;;5016348;28;20112;-78
2023/06/03 01:37:14;;;;;;;3.83;2.40;;;;;;;;;;5017280;28;20050;-78
2023/06/03 01:39:41;;;;;;;3.33;2.60;;;;;;;;;;5016317;28;20411;-78
2023/06/03 01:42:10;;;;;;;3.40;2.53;;;;;;;;;;5016273;28;20510;-78
2023/06/03 01:44:37;;;;;;;4.20;2.63;;;;;;;;;;5040429;28;20045;-78
2023/06/03 01:47:04;;;;;;;4.10;2.55;;;;;;;;;;5055727;28;20064;-78
2023/06/03 01:49:31;;;;;;;4.45;2.67;;;;;;;;;;5055345;28;20136;-78
2023/06/03 01:52:01;;;;;;;2.97;2.40;;;;;;;;;;5034703;28;20622;-78
2023/06/03 01:54:27;;;;;;;3.13;2.40;;;;;;;;;;5035973;28;20056;-78
2023/06/03 01:56:53;;;;;;;3.72;2.42;;;;;;;;;;5035810;28;20045;-78
2023/06/03 01:59:23;;;;;;;3.75;2.42;;;;;;;;;;5035844;28;20045;-78
2023/06/03 02:01:49;;;;;;;4.55;2.75;;;;;;;;;;5036044;28;20045;-78
2023/06/03 02:04:15;;;;;;;2.90;2.38;;;;;;;;;;5035958;28;20046;-78
2023/06/03 02:06:41;;;;;;;5.30;2.30;;;;;;;;;;5035558;28;20045;-78
2023/06/03 02:09:10;;;;;;;3.35;2.75;;;;;;;;;;5034213;28;20545;-78
2023/06/03 02:11:36;;;;;;;3.78;2.40;;;;;;;;;;5035180;28;20053;-78
2023/06/03 02:14:02;;;;;;;3.47;2.60;;;;;;;;;;5036156;28;20146;-78
2023/06/03 02:16:28;;;;;;;4.13;2.30;;;;;;;;;;5034750;28;20479;-78
2023/06/03 02:18:54;;;;;;;3.80;3.00;;;;;;;;;;5019322;28;20077;-78
2023/06/03 02:21:20;;;;;;;3.20;2.55;;;;;;;;;;5019744;28;20073;-78
2023/06/03 02:23:46;;;;;;;3.67;2.55;;;;;;;;;;5033394;28;20037;-78
2023/06/03 02:26:13;;;;;;;3.67;2.60;;;;;;;;;;5046077;28;20046;-78
2023/06/03 02:28:39;;;;;;;4.65;2.78;;;;;;;;;;5018732;28;20046;-78
2023/06/03 02:31:05;;;;;;;4.88;2.50;;;;;;;;;;5015224;28;20046;-78
2023/06/03 02:33:31;;;;;;;6.47;2.35;;;;;;;;;;5034199;28;20107;-77
2023/06/03 02:35:57;;;;;;;3.53;2.45;;;;;;;;;;5034128;28;20475;-77
2023/06/03 02:38:23;;;;;;;2.60;2.22;;;;;;;;;;5041775;28;20056;-77
2023/06/03 02:40:49;;;;;;;2.88;2.20;;;;;;;;;;5054873;28;20040;-78
2023/06/03 02:43:15;;;;;;;4.82;2.60;;;;;;;;;;5047940;28;20056;-78
2023/06/03 02:45:41;;;;;;;6.28;2.40;;;;;;;;;;5034782;28;20041;-78
2023/06/03 02:48:07;;;;;;;2.95;2.30;;;;;;;;;;5033274;28;20180;-78
2023/06/03 02:50:33;;;;;;;4.43;2.65;;;;;;;;;;5033587;28;20084;-78
2023/06/03 02:53:00;;;;;;;4.22;2.25;;;;;;;;;;5034467;28;20514;-78
2023/06/03 02:55:27;;;;;;;3.15;2.50;;;;;;;;;;5034723;28;20041;-78
2023/06/03 02:57:53;;;;;;;6.78;3.20;;;;;;;;;;5035285;28;20534;-78
2023/06/03 03:00:19;;;;;;;3.88;2.40;;;;;;;;;;5035280;28;20045;-78
2023/06/03 03:02:45;;;;;;;4.45;2.47;;;;;;;;;;5034379;28;20657;-78
2023/06/03 03:05:11;;;;;;;4.68;2.42;;;;;;;;;;5034478;28;20045;-78
2023/06/03 03:07:37;;;;;;;4.25;2.60;;;;;;;;;;5039100;28;20047;-78
2023/06/03 03:10:05;;;;;;;4.10;2.50;;;;;;;;;;5047978;28;20084;-78
2023/06/03 03:12:31;;;;;;;3.95;2.60;;;;;;;;;;5034151;28;20403;-78
2023/06/03 03:14:57;;;;;;;4.18;2.70;;;;;;;;;;5032718;28;20483;-78
2023/06/03 03:17:23;;;;;;;4.40;2.40;;;;;;;;;;5015656;28;20052;-78
2023/06/03 03:19:49;;;;;;;4.07;2.47;;;;;;;;;;5014480;28;20096;-78
2023/06/03 03:22:15;;;;;;;5.25;2.58;;;;;;;;;;5017672;28;20249;-78
2023/06/03 03:24:42;;;;;;;3.97;2.35;;;;;;;;;;5032867;28;20119;-78
2023/06/03 03:27:08;;;;;;;4.18;2.75;;;;;;;;;;5033403;28;20544;-78
2023/06/03 03:29:34;;;;;;;3.65;2.30;;;;;;;;;;5033769;28;20511;-78
2023/06/03 03:32:06;;;;;;;4.53;2.25;;;;;;;;;;5045729;28;20491;-78
2023/06/03 03:34:32;;;;;;;4.55;2.72;;;;;;;;;;5014265;28;20053;-78
2023/06/03 03:36:59;;;;;;;4.50;2.50;;;;;;;;;;5039255;28;20139;-78
2023/06/03 03:39:25;;;;;;;3.75;2.50;;;;;;;;;;5052550;28;20490;-78
2023/06/03 03:41:51;;;;;;;4.18;2.90;;;;;;;;;;5053545;28;20379;-78
2023/06/03 03:44:17;;;;;;;3.47;2.60;;;;;;;;;;5043289;28;20125;-78
2023/06/03 03:46:48;;;;;;;4.53;2.42;;;;;;;;;;5014166;28;20045;-78
2023/06/03 03:49:16;;;;;;;4.38;2.70;;;;;;;;;;5033301;28;20051;-78
2023/06/03 03:51:42;;;;;;;4.05;2.50;;;;;;;;;;5023102;28;20467;-78
2023/06/03 03:54:08;;;;;;;4.78;2.92;;;;;;;;;;5014011;28;20038;-78
2023/06/03 03:56:34;;;;;;;4.55;2.45;;;;;;;;;;5013917;28;20049;-78
2023/06/03 03:59:00;;;;;;;4.07;2.72;;;;;;;;;;4996216;28;20046;-78
2023/06/03 04:01:28;;;;;;;4.63;2.70;;;;;;;;;;5013627;28;20099;-78
2023/06/03 04:03:55;;;;;;;4.32;2.90;;;;;;;;;;5032060;28;20372;-78
2023/06/03 04:06:37;;;;;;;4.25;2.60;;;;;;;;;;5033489;28;20054;-78
2023/06/03 04:09:07;;;;;;;4.32;2.53;;;;;;;;;;5033287;28;20096;-77
2023/06/03 04:11:37;;;;;;;3.50;2.75;;;;;;;;;;5033212;28;20137;-77
2023/06/03 04:14:05;;;;;;;3.97;2.60;;;;;;;;;;5025697;28;20410;-78
2023/06/03 04:16:44;;;;;;;4.10;2.50;;;;;;;;;;5025682;28;20049;-78
2023/06/03 04:19:16;;;;;;;4.88;2.30;;;;;;;;;;5038230;28;20063;-78
2023/06/03 04:21:42;;;;;;;3.65;2.30;;;;;;;;;;5030583;28;20038;-78
2023/06/03 04:24:08;;;;;;;3.47;2.35;;;;;;;;;;5013605;28;20042;-78
2023/06/03 04:26:34;;;;;;;4.80;2.47;;;;;;;;;;4996003;28;20050;-78
2023/06/03 04:29:01;;;;;;;3.92;2.03;;;;;;;;;;5031674;28;20085;-78
2023/06/03 04:31:27;;;;;;;4.28;2.50;;;;;;;;;;5053172;28;20037;-78
2023/06/03 04:33:53;;;;;;;5.68;2.60;;;;;;;;;;5052924;28;20044;-78
2023/06/03 04:36:20;;;;;;;4.88;2.30;;;;;;;;;;5052787;28;20049;-78
2023/06/03 04:38:47;;;;;;;3.60;2.60;;;;;;;;;;5038787;28;20061;-78
2023/06/03 04:41:15;;;;;;;3.10;2.05;;;;;;;;;;5037300;28;20054;-78
2023/06/03 04:43:45;;;;;;;4.05;2.47;;;;;;;;;;5034258;28;20046;-78
2023/06/03 04:46:11;;;;;;;3.15;2.20;;;;;;;;;;5017301;28;20046;-78
2023/06/03 04:48:41;;;;;;;3.55;2.00;;;;;;;;;;5018832;28;20060;-78
2023/06/03 04:51:07;;;;;;;2.22;1.90;;;;;;;;;;5035455;28;20081;-79
2023/06/03 04:53:37;;;;;;;8.30;2.45;;;;;;;;;;5035773;28;20507;-78
2023/06/03 04:56:03;;;;;;;3.00;2.10;;;;;;;;;;5036863;28;20088;-78
2023/06/03 04:58:29;;;;;;;2.67;2.10;;;;;;;;;;5022720;28;20046;-78
2023/06/03 05:00:56;;;;;;;6.03;2.30;;;;;;;;;;5036443;28;20183;-78
2023/06/03 05:03:22;;;;;;;2.97;2.38;;;;;;;;;;5050937;28;20049;-78
2023/06/03 05:05:48;;;;;;;3.05;2.10;;;;;;;;;;5036715;28;20041;-78
2023/06/03 05:08:15;;;;;;;5.50;2.80;;;;;;;;;;5036702;28;20076;-78
2023/06/03 05:10:41;;;;;;;4.35;2.40;;;;;;;;;;5036169;28;20479;-78
2023/06/03 05:13:07;;;;;;;3.38;2.30;;;;;;;;;;5028866;28;20045;-78
2023/06/03 05:15:34;;;;;;;2.88;2.20;;;;;;;;;;5016574;28;20038;-78
2023/06/03 05:18:01;;;;;;;2.90;2.10;;;;;;;;;;5017121;28;20415;-78
2023/06/03 05:20:27;;;;;;;2.47;1.98;;;;;;;;;;5014947;28;20115;-78
2023/06/03 05:22:53;;;;;;;3.72;2.47;;;;;;;;;;5028313;28;20057;-78
2023/06/03 05:25:19;;;;;;;2.55;2.10;;;;;;;;;;5036227;28;20041;-78
2023/06/03 05:27:45;;;;;;;2.85;1.92;;;;;;;;;;5036040;28;20470;-78
2023/06/03 05:30:12;;;;;;;3.58;2.20;;;;;;;;;;5036458;28;20187;-78
2023/06/03 05:32:38;;;;;;;3.38;2.25;;;;;;;;;;5036776;28;20041;-78
2023/06/03 05:35:04;;;;;;;2.70;1.98;;;;;;;;;;5033677;28;20049;-78
2023/06/03 05:37:30;;;;;;;2.97;2.10;;;;;;;;;;5031867;28;20045;-78
2023/06/03 05:39:56;;;;;;;4.05;2.28;;;;;;;;;;5042112;28;20052;-80
2023/06/03 05:42:22;;;;;;;2.72;2.00;;;;;;;;;;5039519;28;20045;-78
2023/06/03 05:44:48;;;;;;;2.95;2.13;;;;;;;;;;5038332;28;20492;-78
2023/06/03 05:47:14;;;;;;;2.25;1.90;;;;;;;;;;5034990;28;20038;-78
2023/06/03 05:49:40;;;;;;;3.80;2.40;;;;;;;;;;5039032;28;20054;-78
2023/06/03 05:52:06;;;;;;;4.95;2.22;;;;;;;;;;5033952;28;20417;-78
2023/06/03 05:54:32;;;;;;;3.42;2.20;;;;;;;;;;5034208;28;20096;-78
2023/06/03 05:56:58;;;;;;;4.50;2.10;;;;;;;;;;5035401;28;20048;-78
2023/06/03 05:59:25;;;;;;;2.95;2.20;;;;;;;;;;5035786;28;20399;-78
2023/06/03 06:01:51;;;;;;;2.80;2.25;;;;;;;;;;5035168;28;20439;-78
2023/06/03 06:04:17;;;;;;;2.83;1.95;;;;;;;;;;5034050;28;20121;-78
2023/06/03 06:06:43;;;;;;;3.47;2.30;;;;;;;;;;5036143;28;20046;-78
2023/06/03 06:09:10;;;;;;;2.60;2.30;;;;;;;;;;5030685;28;20069;-78
2023/06/03 06:11:36;;;;;;;3.10;2.20;;;;;;;;;;5018874;28;20061;-79
2023/06/03 06:14:02;;;;;;;3.38;2.08;;;;;;;;;;5019218;28;20038;-78
2023/06/03 06:16:28;;;;;;;3.00;2.17;;;;;;;;;;5037197;28;20037;-78
2023/06/03 06:18:54;;;;;;;3.35;2.17;;;;;;;;;;5042929;28;20041;-78
2023/06/03 06:21:20;;;;;;;3.17;2.10;;;;;;;;;;5059704;28;20053;-79
2023/06/03 06:23:46;;;;;;;4.50;2.20;;;;;;;;;;5057384;28;20088;-78
2023/06/03 06:26:16;;;;;;;4.25;2.33;;;;;;;;;;5046467;28;20061;-78
2023/06/03 06:28:42;;;;;;;4.80;2.65;;;;;;;;;;5037679;28;20114;-78
2023/06/03 06:31:09;;;;;;;2.40;1.95;;;;;;;;;;5038593;28;20083;-78
2023/06/03 06:33:35;;;;;;;2.80;2.20;;;;;;;;;;5020413;28;20049;-78
2023/06/03 06:36:31;;;;;;;5.65;2.03;;;;;;;;;;5036519;28;20092;-78
2023/06/03 06:38:57;;;;;;;3.80;2.00;;;;;;;;;;5010375;28;20408;-78
2023/06/03 06:41:26;;;;;;;3.08;2.17;;;;;;;;;;5024094;28;20387;-78
2023/06/03 06:43:56;;;;;;;4.47;2.20;;;;;;;;;;5035330;28;20129;-78
2023/06/03 06:46:24;;;;;;;3.63;2.08;;;;;;;;;;4998258;28;20056;-78
2023/06/03 06:48:50;;;;;;;5.00;2.53;;;;;;;;;;5022785;28;20496;-78
2023/06/03 06:51:19;;;;;;;2.78;2.00;;;;;;;;;;5034461;28;20049;-78
2023/06/03 06:53:48;;;;;;;4.68;2.47;;;;;;;;;;5034529;28;20133;-78
2023/06/03 06:56:15;;;;;;;3.80;2.40;;;;;;;;;;5034563;28;20041;-78
2023/06/03 06:58:41;;;;;;;3.40;2.50;;;;;;;;;;5031712;28;20528;-78
2023/06/03 07:01:07;;;;;;;2.88;2.13;;;;;;;;;;5018496;28;20542;-78
2023/06/03 07:03:34;;;;;;;3.33;2.20;;;;;;;;;;5034392;28;20388;-78
2023/06/03 07:06:00;;;;;;;3.22;2.30;;;;;;;;;;5035839;28;20067;-80
2023/06/03 07:08:26;;;;;;;3.55;2.30;;;;;;;;;;5034181;28;20076;-78
2023/06/03 07:10:56;;;;;;;4.55;2.30;;;;;;;;;;5055981;28;20060;-78
2023/06/03 07:13:22;;;;;;;5.13;2.63;;;;;;;;;;5056095;28;20132;-78
2023/06/03 07:15:48;;;;;;;4.40;2.60;;;;;;;;;;5053707;28;20124;-78
2023/06/03 07:18:14;;;;;;;6.45;2.60;;;;;;;;;;5054741;28;20049;-78
2023/06/03 07:20:44;;;;;;;3.20;2.30;;;;;;;;;;5053548;28;20048;-78
2023/06/03 07:23:15;;;;;;;3.50;1.90;;;;;;;;;;5032724;28;20081;-78
2023/06/03 07:25:45;;;;;;;4.13;1.90;;;;;;;;;;5047097;28;20340;-79
2023/06/03 07:28:12;;;;;;;3.28;2.20;;;;;;;;;;5033996;28;20514;-78
2023/06/03 07:30:38;;;;;;;4.55;2.80;;;;;;;;;;5034256;28;20154;-78
2023/06/03 07:33:05;;;;;;;3.60;2.17;;;;;;;;;;5033872;28;20053;-78
2023/06/03 07:35:33;;;;;;;3.05;2.03;;;;;;;;;;5033814;28;20540;-79
2023/06/03 07:37:59;;;;;;;3.55;2.20;;;;;;;;;;5014890;28;20385;-77
2023/06/03 07:40:38;;;;;;;4.13;2.20;;;;;;;;;;4998561;28;20488;-79
2023/06/03 07:43:04;;;;;;;2.20;2.00;;;;;;;;;;5019154;28;20049;-78
2023/06/03 07:45:30;;;;;;;3.67;2.13;;;;;;;;;;5038361;28;20122;-81
2023/06/03 07:47:56;;;;;;;3.10;2.00;;;;;;;;;;5020728;28;20042;-80
2023/06/03 07:50:23;;;;;;;3.10;1.90;;;;;;;;;;5019880;28;20053;-80
2023/06/03 07:53:00;;;;;;;4.60;1.95;;;;;;;;;;5026506;28;20045;-80
2023/06/03 07:55:26;;;;;;;3.72;2.00;;;;;;;;;;5025252;28;20049;-79
2023/06/03 07:57:52;;;;;;;6.18;2.30;;;;;;;;;;5016953;28;20403;-80
2023/06/03 08:00:18;;;;;;;2.70;1.85;;;;;;;;;;5033907;28;20049;-80
2023/06/03 08:02:44;;;;;;;3.88;1.90;;;;;;;;;;5013535;28;20546;-80
2023/06/03 08:05:10;;;;;;;2.40;1.98;;;;;;;;;;5015384;28;20045;-80
2023/06/03 08:07:37;;;;;;;6.28;2.85;;;;;;;;;;5014535;28;20046;-80
2023/06/03 08:10:04;;;;;;;7.85;2.22;;;;;;;;;;5013321;28;20089;-80
2023/06/03 08:12:36;;;;;;;5.43;2.00;;;;;;;;;;5020005;28;20444;-81
2023/06/03 08:15:02;;;;;;;4.00;1.98;;;;;;;;;;5021639;28;20049;-80
2023/06/03 08:17:46;;;;;;;4.10;2.05;;;;;;;;;;5030318;28;20112;-80
2023/06/03 08:20:13;;;;;;;3.03;2.00;;;;;;;;;;5030552;28;20049;-80
2023/06/03 08:22:41;;;;;;;3.03;1.83;;;;;;;;;;5015454;28;20492;-80
2023/06/03 08:25:07;;;;;;;2.70;1.92;;;;;;;;;;5020425;28;20073;-81
2023/06/03 08:27:33;;;;;;;2.38;1.80;;;;;;;;;;5018085;28;20038;-81
2023/06/03 08:30:03;;;;;;;1.80;1.70;;;;;;;;;;5017811;28;20050;-81
2023/06/03 08:32:29;;;;;;;4.28;1.67;;;;;;;;;;5028907;28;20037;-81
2023/06/03 08:34:55;;;;;;;3.03;1.90;;;;;;;;;;5020536;28;20076;-81
2023/06/03 08:37:21;;;;;;;3.83;1.65;;;;;;;;;;5037452;28;20344;-81
2023/06/03 08:39:49;;;;;;;2.15;1.80;;;;;;;;;;5047502;28;20487;-81
2023/06/03 08:42:19;;;;;;;2.58;1.50;;;;;;;;;;5035407;28;20445;-81
2023/06/03 08:44:49;;;;;;;2.95;1.80;;;;;;;;;;5035998;28;20069;-81
2023/06/03 08:47:26;;;;;;;3.83;1.90;;;;;;;;;;5035292;28;20113;-81
2023/06/03 08:50:00;;;;;;;3.28;1.80;;;;;;;;;;5038233;28;20049;-80
2023/06/03 08:52:28;;;;;;;3.83;1.60;;;;;;;;;;5044830;28;20073;-81
2023/06/03 08:54:56;;;;;;;3.10;1.60;;;;;;;;;;5033755;28;20544;-81
2023/06/03 08:57:22;;;;;;;2.58;1.60;;;;;;;;;;5045832;28;20046;-81
2023/06/03 08:59:52;;;;;;;2.47;1.50;;;;;;;;;;5053827;28;20037;-80
2023/06/03 09:02:18;;;;;;;3.70;1.90;;;;;;;;;;5051672;28;20048;-80
2023/06/03 09:04:45;;;;;;;6.05;1.88;;;;;;;;;;5043837;28;20137;-80
2023/06/03 09:07:12;;;;;;;2.67;1.70;;;;;;;;;;5047706;28;20067;-80
2023/06/03 09:09:38;;;;;;;1.83;1.60;;;;;;;;;;5034264;28;20431;-80
2023/06/03 09:12:04;;;;;;;2.13;1.52;;;;;;;;;;5044123;28;20041;-80
2023/06/03 09:14:31;;;;;;;2.40;1.50;;;;;;;;;;5047826;28;20532;-80
2023/06/03 09:16:57;;;;;;;2.40;1.70;;;;;;;;;;5045222;28;20109;-83
2023/06/03 09:19:26;;;;;;;3.05;1.65;;;;;;;;;;5035807;28;20038;-81
2023/06/03 09:21:56;;;;;;;4.05;1.80;;;;;;;;;;5040775;28;20038;-81
2023/06/03 09:24:22;;;;;;;2.25;1.63;;;;;;;;;;5044855;28;20055;-81
2023/06/03 09:26:48;;;;;;;2.40;1.60;;;;;;;;;;5047777;28;20071;-82
2023/06/03 09:29:14;;;;;;;3.20;1.77;;;;;;;;;;5044303;28;20041;-81
2023/06/03 09:31:41;;;;;;;1.95;1.55;;;;;;;;;;5043338;28;20060;-82
2023/06/03 09:34:07;;;;;;;1.88;1.40;;;;;;;;;;5041432;28;20041;-83
2023/06/03 09:36:44;;;;;;;2.80;1.70;;;;;;;;;;5043496;28;20047;-81
2023/06/03 09:39:10;;;;;;;2.35;1.60;;;;;;;;;;5036813;28;20049;-83
2023/06/03 09:41:37;;;;;;;2.58;1.77;;;;;;;;;;5041018;28;20399;-81
2023/06/03 09:44:08;;;;;;;3.33;1.70;;;;;;;;;;5042125;28;20160;-82
2023/06/03 09:46:34;;;;;;;4.90;1.73;;;;;;;;;;5037789;28;20046;-81
2023/06/03 09:49:21;;;;;;;2.97;1.40;;;;;;;;;;5036245;28;20069;-82
2023/06/03 09:51:46;;;;;;;;;;;;;;;;;;5027232;28;20050;-81
2023/06/03 09:54:14;;;;;;;3.67;1.70;;;;;;;;;;5037416;28;19921;-81
2023/06/03 09:56:40;;;;;;;2.92;1.45;;;;;;;;;;5032127;28;20042;-82
2023/06/03 09:59:16;;;;;;;2.13;1.60;;;;;;;;;;5022809;28;20048;-83
2023/06/03 10:01:45;;;;;;;2.05;1.65;;;;;;;;;;5042138;28;20046;-83
2023/06/03 10:04:12;;;;;;;2.28;1.70;;;;;;;;;;5040999;28;20045;-81
2023/06/03 10:06:38;;;;;;;2.78;1.80;;;;;;;;;;5042254;28;20053;-81
2023/06/03 10:09:26;;;;;;;3.67;1.73;;;;;;;;;;5057191;28;20415;-80
2023/06/03 10:11:53;;;;;;;2.38;1.77;;;;;;;;;;5037769;28;20508;-80
2023/06/03 10:14:21;;;;;;;2.50;1.60;;;;;;;;;;5038054;28;20449;-80
2023/06/03 10:17:03;;;;;;;3.17;1.60;;;;;;;;;;5046362;28;20077;-80
2023/06/03 10:19:33;;;;;;;2.05;1.60;;;;;;;;;;5023838;28;20130;-80
2023/06/03 10:21:59;;;;;;;2.70;1.50;;;;;;;;;;5027400;28;20124;-81
2023/06/03 10:24:29;;;;;;;2.50;1.83;;;;;;;;;;5021556;28;20049;-80
2023/06/03 10:26:55;;;;;;;3.40;1.65;;;;;;;;;;5049980;28;20097;-80
2023/06/03 10:29:21;;;;;;;3.47;1.50;;;;;;;;;;5039701;28;20096;-81
2023/06/03 10:31:49;;;;;;;2.53;1.55;;;;;;;;;;5030529;28;20453;-81
2023/06/03 10:34:16;;;;;;;2.38;1.80;;;;;;;;;;5030378;28;20053;-80
2023/06/03 10:36:42;;;;;;;3.72;1.70;;;;;;;;;;5038508;28;20119;-79
2023/06/03 10:39:11;;;;;;;4.22;1.90;;;;;;;;;;5038939;28;20116;-82
2023/06/03 10:41:41;;;;;;;2.92;1.73;;;;;;;;;;5023171;28;20089;-81
2023/06/03 10:44:07;;;;;;;2.53;1.65;;;;;;;;;;5034411;28;20168;-81
2023/06/03 10:46:34;;;;;;;3.25;1.65;;;;;;;;;;5035384;28;20041;-80
2023/06/03 10:49:01;;;;;;;2.15;1.60;;;;;;;;;;5027419;28;20037;-80
2023/06/03 10:51:46;;;;;;;2.65;1.70;;;;;;;;;;5052223;28;20053;-81
2023/06/03 10:54:33;;;;;;;2.50;1.70;;;;;;;;;;5029853;28;20083;-84
2023/06/03 10:57:06;;;;;;;4.20;1.70;;;;;;;;;;5042995;28;20048;-81
2023/06/03 10:59:43;;;;;;;3.08;1.58;;;;;;;;;;5041044;28;20400;-81
2023/06/03 11:02:09;;;;;;;2.72;1.67;;;;;;;;;;5037229;28;20128;-81
2023/06/03 11:04:36;;;;;;;3.05;1.60;;;;;;;;;;5040856;28;20095;-82
2023/06/03 11:07:03;;;;;;;3.72;1.55;;;;;;;;;;5045029;28;20053;-80
2023/06/03 11:09:39;;;;;;;3.55;1.67;;;;;;;;;;5042216;28;20033;-81
2023/06/03 11:12:15;;;;;;;1.70;1.40;;;;;;;;;;5038909;28;20120;-81
2023/06/03 11:14:42;;;;;;;1.40;1.30;;;;;;;;;;5045478;28;20041;-81
2023/06/03 11:17:10;;;;;;;1.60;1.50;;;;;;;;;;5053139;28;20380;-81
2023/06/03 11:19:36;;;;;;;2.92;1.63;;;;;;;;;;5033301;28;20071;-81
2023/06/03 11:22:04;;;;;;;2.00;1.50;;;;;;;;;;5039719;28;20547;-80
2023/06/03 11:24:40;;;;;;;2.55;1.60;;;;;;;;;;5053954;28;20056;-81
2023/06/03 11:27:12;;;;;;;2.47;1.50;;;;;;;;;;5042675;28;20118;-81
2023/06/03 11:29:45;;;;;;;2.75;1.67;;;;;;;;;;5038069;28;20057;-80
2023/06/03 11:32:20;;;;;;;2.28;1.70;;;;;;;;;;5050359;28;20041;-80
2023/06/03 11:34:47;;;;;;;1.67;1.50;;;;;;;;;;5035685;28;20041;-80
2023/06/03 11:37:19;;;;;;;3.13;1.60;;;;;;;;;;5041903;28;20427;-81
2023/06/03 11:40:07;;;;;;;2.92;1.60;;;;;;;;;;5041699;28;20095;-81
2023/06/03 11:42:46;;;;;;;3.08;1.90;;;;;;;;;;5037926;28;20045;-81
2023/06/03 11:45:32;;;;;;;4.40;1.85;;;;;;;;;;5035260;28;20037;-80
2023/06/03 11:48:04;;;;;;;2.22;1.70;;;;;;;;;;5027423;28;20175;-79
2023/06/03 11:50:31;;;;;;;1.98;1.55;;;;;;;;;;5026947;28;20124;-79
2023/06/03 11:52:57;;;;;;;1.95;1.58;;;;;;;;;;5035200;28;20045;-79
2023/06/03 11:55:24;;;;;;;1.95;1.60;;;;;;;;;;5028350;28;20065;-79
2023/06/03 11:57:50;;;;;;;4.38;1.70;;;;;;;;;;5019046;28;20452;-79
2023/06/03 12:00:17;;;;;;;4.47;1.70;;;;;;;;;;5036895;28;20438;-79
2023/06/03 12:02:46;;;;;;;3.25;1.92;;;;;;;;;;5041131;28;20167;-79
2023/06/03 12:05:12;;;;;;;3.90;1.60;;;;;;;;;;5040029;28;20087;-79
2023/06/03 12:07:38;;;;;;;2.95;1.70;;;;;;;;;;5039982;28;20076;-80
2023/06/03 12:10:05;;;;;;;2.47;1.80;;;;;;;;;;5029654;28;20115;-80
2023/06/03 12:12:31;;;;;;;2.75;1.70;;;;;;;;;;5038062;28;20108;-79
2023/06/03 12:15:04;;;;;;;1.77;1.50;;;;;;;;;;5020082;28;20045;-79
2023/06/03 12:17:30;;;;;;;2.17;1.70;;;;;;;;;;5038584;28;20055;-79
2023/06/03 12:19:56;;;;;;;3.72;1.70;;;;;;;;;;5051939;28;20085;-79
2023/06/03 12:22:23;;;;;;;2.72;1.77;;;;;;;;;;5028609;28;20105;-79
2023/06/03 12:24:49;;;;;;;2.08;1.60;;;;;;;;;;5044826;28;20075;-80
2023/06/03 12:27:23;;;;;;;3.22;1.75;;;;;;;;;;5039929;28;20065;-80
2023/06/03 12:29:59;;;;;;;3.22;1.98;;;;;;;;;;5034484;28;20045;-80
2023/06/03 12:32:29;;;;;;;3.22;1.70;;;;;;;;;;5020855;28;20088;-80
2023/06/03 12:34:55;;;;;;;1.90;1.70;;;;;;;;;;5032836;28;20050;-80
2023/06/03 12:37:33;;;;;;;3.97;1.80;;;;;;;;;;5026591;28;20050;-80
2023/06/03 12:40:00;;;;;;;3.65;1.70;;;;;;;;;;5035281;28;20041;-80
2023/06/03 12:42:35;;;;;;;2.20;1.63;;;;;;;;;;5031710;28;20416;-80
2023/06/03 12:45:02;;;;;;;3.63;1.63;;;;;;;;;;5032175;28;20526;-80
2023/06/03 12:47:28;;;;;;;2.55;1.60;;;;;;;;;;5020750;28;20050;-80
2023/06/03 12:50:07;;;;;;;2.78;1.77;;;;;;;;;;5035438;28;20052;-79
2023/06/03 12:52:36;;;;;;;4.60;2.05;;;;;;;;;;5029209;28;20049;-81
2023/06/03 12:55:03;;;;;;;2.63;1.65;;;;;;;;;;5016705;28;20522;-79
2023/06/03 12:57:31;;;;;;;1.70;1.55;;;;;;;;;;5037126;28;20099;-79
2023/06/03 13:00:15;;;;;;;2.92;1.67;;;;;;;;;;5034275;28;20041;-79
2023/06/03 13:02:42;;;;;;;3.47;1.58;;;;;;;;;;5022275;28;20048;-79
2023/06/03 13:05:09;;;;;;;3.05;1.70;;;;;;;;;;5037626;28;20095;-79
2023/06/03 13:07:36;;;;;;;2.80;1.77;;;;;;;;;;5028097;28;20049;-80
2023/06/03 13:10:03;;;;;;;3.28;1.55;;;;;;;;;;5018243;28;20100;-80
2023/06/03 13:12:30;;;;;;;2.83;1.55;;;;;;;;;;5026184;28;20124;-80
2023/06/03 13:14:56;;;;;;;3.25;1.60;;;;;;;;;;5030384;28;20061;-80
2023/06/03 13:17:22;;;;;;;2.22;1.52;;;;;;;;;;5032171;28;20049;-80
2023/06/03 13:19:49;;;;;;;2.10;1.50;;;;;;;;;;5035150;28;20056;-80
2023/06/03 13:22:16;;;;;;;3.20;1.50;;;;;;;;;;5015830;28;20056;-82
2023/06/03 13:24:42;;;;;;;3.33;1.83;;;;;;;;;;5026753;28;20053;-80
2023/06/03 13:27:09;;;;;;;2.13;1.67;;;;;;;;;;5031509;28;20106;-79
2023/06/03 13:29:35;;;;;;;1.50;1.40;;;;;;;;;;5039551;28;20412;-79
2023/06/03 13:32:01;;;;;;;2.00;1.52;;;;;;;;;;5027631;28;20048;-80
2023/06/03 13:34:28;;;;;;;2.65;1.58;;;;;;;;;;5042696;28;20458;-79
2023/06/03 13:36:54;;;;;;;2.88;1.65;;;;;;;;;;5040801;28;20045;-80
2023/06/03 13:39:24;;;;;;;2.72;1.50;;;;;;;;;;5028288;28;20522;-79
2023/06/03 13:41:50;;;;;;;4.22;1.83;;;;;;;;;;5024355;28;20120;-80
2023/06/03 13:44:17;;;;;;;2.35;1.50;;;;;;;;;;5046761;28;20061;-79
2023/06/03 13:46:43;;;;;;;2.00;1.65;;;;;;;;;;5035714;28;20060;-79
2023/06/03 13:49:09;;;;;;;3.45;1.80;;;;;;;;;;5048480;28;20048;-79
2023/06/03 13:51:36;;;;;;;3.47;1.90;;;;;;;;;;5057652;28;20041;-79
2023/06/03 13:54:03;;;;;;;2.35;1.60;;;;;;;;;;5029080;28;20522;-79
2023/06/03 13:56:29;;;;;;;2.75;1.60;;;;;;;;;;5015992;28;20049;-80
2023/06/03 13:58:55;;;;;;;2.38;1.77;;;;;;;;;;5034404;28;20053;-79
2023/06/03 14:01:21;;;;;;;1.67;1.55;;;;;;;;;;4999555;28;20096;-79
2023/06/03 14:03:47;;;;;;;2.10;1.70;;;;;;;;;;5017344;28;20046;-79
2023/06/03 14:06:13;;;;;;;1.65;1.33;;;;;;;;;;5017438;28;20041;-79
2023/06/03 14:08:40;;;;;;;1.58;1.45;;;;;;;;;;5036799;28;20042;-79
2023/06/03 14:11:07;;;;;;;2.35;1.60;;;;;;;;;;5036899;28;20057;-79
2023/06/03 14:13:33;;;;;;;2.92;1.65;;;;;;;;;;5037268;28;20128;-79
2023/06/03 14:15:59;;;;;;;2.75;1.70;;;;;;;;;;5036771;28;20039;-80
2023/06/03 14:18:25;;;;;;;3.38;1.70;;;;;;;;;;5034872;28;21121;-81
2023/06/03 14:20:54;;;;;;;2.85;1.80;;;;;;;;;;5035820;28;21936;-79
2023/06/03 14:23:20;;;;;;;1.77;1.48;;;;;;;;;;5028248;28;20045;-79
2023/06/03 14:25:46;;;;;;;3.60;1.80;;;;;;;;;;5033745;28;20547;-82
2023/06/03 14:28:15;;;;;;;2.53;1.70;;;;;;;;;;5055578;28;20131;-81
2023/06/03 14:30:41;;;;;;;2.30;1.60;;;;;;;;;;5020980;28;20117;-80
2023/06/03 14:33:08;;;;;;;2.75;1.52;;;;;;;;;;5037077;28;20041;-80
2023/06/03 14:35:34;;;;;;;2.83;1.60;;;;;;;;;;5056033;28;20476;-79
2023/06/03 14:38:00;;;;;;;2.03;1.60;;;;;;;;;;5056419;28;20403;-79
2023/06/03 14:40:26;;;;;;;2.55;1.63;;;;;;;;;;5051268;28;20479;-79
2023/06/03 14:42:52;;;;;;;2.05;1.65;;;;;;;;;;5034843;28;20068;-80
2023/06/03 14:45:18;;;;;;;2.97;1.60;;;;;;;;;;5032164;28;20058;-81
2023/06/03 14:47:44;;;;;;;4.32;1.58;;;;;;;;;;5017824;28;20488;-81